createdAt,value
2017-07-30T00:00:46.764Z,7.80
2017-07-30T00:03:15.012Z,9.50
2017-07-30T00:05:43.256Z,9.57
2017-07-30T00:08:11.687Z,9.50
2017-07-30T00:10:39.923Z,9.03
2017-07-30T00:13:08.177Z,8.77
2017-07-30T00:15:36.618Z,8.10
2017-07-30T00:18:04.876Z,11.43
2017-07-30T00:20:33.116Z,10.33
2017-07-30T00:23:01.963Z,8.43
2017-07-30T00:25:30.195Z,10.70
2017-07-30T00:27:58.835Z,8.87
2017-07-30T00:30:27.092Z,8.47
2017-07-30T00:32:55.338Z,9.40
2017-07-30T00:35:24.165Z,11.87
2017-07-30T00:37:52.409Z,10.00
2017-07-30T00:40:20.712Z,11.83
2017-07-30T00:42:48.980Z,7.67
2017-07-30T00:45:17.223Z,10.07
2017-07-30T00:47:45.851Z,10.87
2017-07-30T00:50:14.138Z,8.60
2017-07-30T00:52:42.391Z,12.23
2017-07-30T00:55:10.649Z,12.60
2017-07-30T00:57:38.915Z,14.23
2017-07-30T01:00:07.375Z,7.83
2017-07-30T01:02:35.633Z,11.73
2017-07-30T01:05:04.140Z,12.30
2017-07-30T01:07:32.386Z,10.90
2017-07-30T01:10:00.630Z,9.87
2017-07-30T01:12:28.904Z,12.90
2017-07-30T01:14:57.372Z,6.83
2017-07-30T01:17:25.615Z,14.87
2017-07-30T01:19:53.865Z,14.20
2017-07-30T01:22:22.332Z,11.40
2017-07-30T01:24:51.575Z,10.13
2017-07-30T01:27:20.210Z,12.50
2017-07-30T01:29:48.684Z,10.77
2017-07-30T01:32:17.343Z,14.17
2017-07-30T01:34:45.583Z,10.57
2017-07-30T01:37:13.833Z,9.40
2017-07-30T01:39:42.334Z,8.97
2017-07-30T01:42:10.571Z,12.07
2017-07-30T01:44:38.813Z,10.00
2017-07-30T01:47:07.234Z,15.47
2017-07-30T01:49:35.704Z,11.37
2017-07-30T01:52:03.945Z,11.50
2017-07-30T01:54:32.621Z,12.27
2017-07-30T01:57:00.871Z,15.53
2017-07-30T01:59:29.113Z,10.33
2017-07-30T02:01:57.389Z,9.63
2017-07-30T02:04:25.628Z,12.03
2017-07-30T02:06:53.916Z,11.37
2017-07-30T02:09:22.728Z,9.40
2017-07-30T02:11:51.206Z,10.47
2017-07-30T02:14:19.453Z,12.73
2017-07-30T02:16:47.945Z,10.50
2017-07-30T02:19:16.818Z,12.73
2017-07-30T02:21:45.056Z,9.87
2017-07-30T02:24:13.361Z,11.70
2017-07-30T02:26:41.591Z,11.23
2017-07-30T02:29:09.882Z,10.83
2017-07-30T02:31:38.116Z,8.90
2017-07-30T02:34:06.777Z,7.37
2017-07-30T02:36:35.050Z,7.27
2017-07-30T02:39:03.294Z,12.47
2017-07-30T02:41:31.545Z,11.77
2017-07-30T02:44:00.191Z,7.93
2017-07-30T02:46:28.428Z,11.40
2017-07-30T02:48:56.680Z,10.30
2017-07-30T02:51:24.974Z,9.23
2017-07-30T02:53:53.441Z,10.17
2017-07-30T02:56:21.693Z,9.73
2017-07-30T02:58:49.983Z,12.00
2017-07-30T03:01:18.264Z,13.97
2017-07-30T03:03:46.511Z,9.80
2017-07-30T03:06:14.941Z,10.73
2017-07-30T03:08:43.201Z,10.23
2017-07-30T03:11:11.677Z,8.90
2017-07-30T03:13:39.979Z,7.47
2017-07-30T03:16:08.207Z,7.00
2017-07-30T03:18:36.836Z,13.20
2017-07-30T03:21:05.128Z,8.23
2017-07-30T03:23:33.367Z,9.60
2017-07-30T03:26:01.820Z,7.47
2017-07-30T03:28:30.241Z,8.53
2017-07-30T03:30:58.496Z,9.03
2017-07-30T03:33:26.729Z,10.47
2017-07-30T03:35:55.006Z,9.27
2017-07-30T03:38:23.250Z,7.70
2017-07-30T03:40:51.502Z,10.53
2017-07-30T03:43:19.819Z,11.87
2017-07-30T03:45:48.075Z,11.00
2017-07-30T03:48:16.315Z,13.80
2017-07-30T03:50:44.599Z,12.40
2017-07-30T03:53:12.864Z,9.70
2017-07-30T03:55:41.505Z,11.90
2017-07-30T03:58:09.806Z,9.47
2017-07-30T04:00:38.054Z,10.73
2017-07-30T04:03:06.283Z,8.97
2017-07-30T04:05:34.560Z,16.30
2017-07-30T04:08:02.812Z,10.17
2017-07-30T04:10:31.462Z,15.77
2017-07-30T04:12:59.744Z,12.10
2017-07-30T04:15:27.985Z,8.30
2017-07-30T04:17:56.229Z,11.47
2017-07-30T04:20:24.661Z,9.83
2017-07-30T04:22:52.910Z,11.73
2017-07-30T04:25:21.144Z,9.37
2017-07-30T04:27:49.400Z,13.07
2017-07-30T04:30:17.683Z,10.80
2017-07-30T04:32:46.656Z,11.53
2017-07-30T04:35:15.092Z,11.83
2017-07-30T04:37:43.736Z,12.30
2017-07-30T04:40:11.996Z,11.17
2017-07-30T04:42:40.264Z,9.70
2017-07-30T04:45:08.504Z,11.73
2017-07-30T04:47:36.749Z,10.97
2017-07-30T04:50:05.172Z,8.00
2017-07-30T04:52:33.429Z,13.80
2017-07-30T04:55:02.053Z,6.17
2017-07-30T04:57:30.324Z,8.57
2017-07-30T04:59:58.784Z,9.47
2017-07-30T05:02:27.040Z,10.23
2017-07-30T05:04:55.751Z,10.03
2017-07-30T05:07:23.999Z,12.03
2017-07-30T05:09:52.244Z,7.70
2017-07-30T05:12:20.528Z,10.17
2017-07-30T05:14:48.764Z,8.37
2017-07-30T05:17:17.218Z,9.83
2017-07-30T05:19:45.978Z,11.43
2017-07-30T05:22:14.237Z,10.00
2017-07-30T05:24:42.489Z,7.30
2017-07-30T05:27:10.945Z,10.40
2017-07-30T05:29:39.192Z,9.20
2017-07-30T05:32:07.840Z,7.73
2017-07-30T05:34:36.281Z,8.87
2017-07-30T05:37:04.528Z,10.97
2017-07-30T05:39:32.760Z,6.30
2017-07-30T05:42:01.036Z,7.60
2017-07-30T05:44:29.293Z,8.30
2017-07-30T05:46:57.561Z,11.63
2017-07-30T05:49:25.920Z,7.00
2017-07-30T05:51:54.782Z,6.33
2017-07-30T05:54:23.025Z,7.60
2017-07-30T05:56:51.308Z,10.27
2017-07-30T05:59:19.550Z,8.73
2017-07-30T06:01:47.813Z,7.60
2017-07-30T06:04:16.092Z,6.97
2017-07-30T06:06:44.381Z,7.90
2017-07-30T06:09:12.629Z,7.97
2017-07-30T06:11:41.102Z,6.43
2017-07-30T06:14:09.322Z,7.10
2017-07-30T06:16:37.780Z,8.93
2017-07-30T06:19:06.424Z,8.20
2017-07-30T06:21:34.665Z,6.83
2017-07-30T06:24:02.921Z,11.10
2017-07-30T06:26:31.599Z,11.17
2017-07-30T06:29:00.235Z,7.77
2017-07-30T06:31:28.735Z,10.53
2017-07-30T06:33:57.155Z,6.93
2017-07-30T06:36:25.402Z,9.00
2017-07-30T06:38:53.642Z,8.20
2017-07-30T06:41:21.920Z,9.77
2017-07-30T06:43:50.393Z,7.27
2017-07-30T06:46:18.632Z,6.90
2017-07-30T06:48:47.453Z,6.23
2017-07-30T06:51:15.700Z,5.90
2017-07-30T06:53:43.947Z,9.03
2017-07-30T06:56:12.218Z,6.97
2017-07-30T06:58:40.447Z,6.50
2017-07-30T07:01:08.735Z,6.17
2017-07-30T07:03:37.693Z,8.43
2017-07-30T07:06:06.562Z,7.83
2017-07-30T07:08:34.803Z,6.53
2017-07-30T07:11:03.100Z,6.47
2017-07-30T07:13:31.578Z,7.30
2017-07-30T07:15:59.805Z,7.20
2017-07-30T07:18:28.078Z,8.67
2017-07-30T07:20:56.343Z,6.80
2017-07-30T07:23:24.593Z,6.43
2017-07-30T07:25:52.894Z,6.73
2017-07-30T07:28:21.329Z,7.60
2017-07-30T07:30:50.395Z,8.80
2017-07-30T07:33:18.989Z,6.93
2017-07-30T07:35:47.230Z,5.27
2017-07-30T07:38:15.475Z,6.03
2017-07-30T07:40:43.748Z,8.20
2017-07-30T07:43:11.999Z,7.93
2017-07-30T07:45:40.249Z,6.50
2017-07-30T07:48:08.528Z,6.60
2017-07-30T07:50:36.773Z,8.13
2017-07-30T07:53:05.022Z,6.10
2017-07-30T07:55:33.290Z,5.87
2017-07-30T07:58:01.523Z,7.43
2017-07-30T08:00:29.781Z,6.73
2017-07-30T08:02:58.032Z,6.53
2017-07-30T08:05:26.793Z,8.30
2017-07-30T08:07:55.060Z,4.90
2017-07-30T08:10:23.357Z,7.00
2017-07-30T08:12:51.591Z,5.23
2017-07-30T08:15:19.850Z,6.00
2017-07-30T08:17:48.896Z,5.30
2017-07-30T08:20:17.152Z,5.57
2017-07-30T08:22:45.416Z,5.10
2017-07-30T08:25:14.054Z,5.63
2017-07-30T08:27:42.291Z,7.37
2017-07-30T08:30:10.547Z,5.73
2017-07-30T08:32:38.814Z,5.50
2017-07-30T08:35:07.461Z,5.37
2017-07-30T08:37:35.697Z,4.77
2017-07-30T08:40:03.971Z,5.83
2017-07-30T08:42:32.238Z,9.20
2017-07-30T08:45:00.488Z,6.73
2017-07-30T08:47:28.769Z,4.80
2017-07-30T08:49:57.400Z,5.77
2017-07-30T08:52:25.646Z,6.70
2017-07-30T08:54:54.063Z,5.60
2017-07-30T08:57:22.306Z,6.50
2017-07-30T08:59:50.541Z,4.90
2017-07-30T09:02:18.960Z,4.57
2017-07-30T09:04:47.212Z,4.83
2017-07-30T09:07:15.458Z,5.57
2017-07-30T09:09:43.737Z,5.47
2017-07-30T09:12:11.972Z,5.00
2017-07-30T09:14:40.444Z,4.80
2017-07-30T09:17:08.690Z,5.53
2017-07-30T09:19:36.932Z,4.40
2017-07-30T09:22:05.183Z,4.60
2017-07-30T09:24:33.672Z,5.13
2017-07-30T09:27:01.925Z,5.23
2017-07-30T09:29:30.149Z,4.40
2017-07-30T09:31:58.449Z,4.10
2017-07-30T09:34:26.689Z,4.30
2017-07-30T09:36:54.929Z,5.33
2017-07-30T09:39:23.191Z,4.60
2017-07-30T09:41:51.436Z,6.40
2017-07-30T09:44:19.664Z,9.03
2017-07-30T09:46:47.939Z,4.90
2017-07-30T09:49:16.248Z,6.70
2017-07-30T09:51:44.491Z,4.67
2017-07-30T09:54:12.768Z,7.00
2017-07-30T09:56:40.993Z,4.30
2017-07-30T09:59:09.228Z,4.33
2017-07-30T10:01:37.495Z,4.53
2017-07-30T10:04:05.733Z,5.17
2017-07-30T10:06:33.984Z,4.50
2017-07-30T10:09:02.535Z,5.67
2017-07-30T10:11:30.784Z,4.07
2017-07-30T10:13:59.044Z,5.70
2017-07-30T10:16:27.323Z,5.93
2017-07-30T10:18:56.076Z,6.10
2017-07-30T10:21:24.528Z,4.57
2017-07-30T10:23:53.200Z,4.30
2017-07-30T10:26:21.449Z,3.90
2017-07-30T10:28:49.690Z,4.37
2017-07-30T10:31:17.952Z,4.23
2017-07-30T10:33:46.192Z,4.90
2017-07-30T10:36:14.420Z,3.97
2017-07-30T10:38:43.187Z,4.20
2017-07-30T10:41:11.493Z,4.10
2017-07-30T10:43:40.305Z,4.43
2017-07-30T10:46:09.140Z,5.43
2017-07-30T10:48:37.381Z,3.83
2017-07-30T10:51:05.629Z,4.27
2017-07-30T10:53:34.133Z,7.47
2017-07-30T10:56:02.467Z,6.13
2017-07-30T10:58:30.690Z,4.80
2017-07-30T11:00:59.001Z,5.00
2017-07-30T11:03:27.256Z,4.47
2017-07-30T11:05:55.710Z,7.50
2017-07-30T11:08:23.976Z,9.97
2017-07-30T11:10:52.616Z,4.17
2017-07-30T11:13:20.857Z,4.33
2017-07-30T11:15:49.564Z,7.07
2017-07-30T11:18:17.808Z,4.27
2017-07-30T11:20:46.435Z,4.00
2017-07-30T11:23:14.867Z,5.30
2017-07-30T11:25:43.497Z,4.40
2017-07-30T11:28:11.972Z,7.47
2017-07-30T11:30:42.041Z,4.27
2017-07-30T11:33:10.272Z,5.03
2017-07-30T11:35:38.580Z,3.83
2017-07-30T11:38:06.996Z,4.70
2017-07-30T11:40:35.243Z,4.50
2017-07-30T11:43:03.550Z,4.33
2017-07-30T11:45:31.820Z,4.20
2017-07-30T11:48:00.060Z,3.67
2017-07-30T11:50:28.327Z,4.10
2017-07-30T11:52:56.587Z,3.77
2017-07-30T11:55:25.081Z,3.87
2017-07-30T11:57:53.317Z,7.10
2017-07-30T12:00:21.749Z,4.37
2017-07-30T12:02:49.976Z,3.73
2017-07-30T12:05:18.209Z,4.63
2017-07-30T12:07:46.904Z,4.13
2017-07-30T12:10:15.536Z,9.83
2017-07-30T12:12:43.797Z,4.03
2017-07-30T12:15:12.107Z,3.07
2017-07-30T12:17:40.351Z,3.07
2017-07-30T12:20:08.615Z,4.87
2017-07-30T12:22:36.890Z,3.30
2017-07-30T12:25:05.373Z,4.57
2017-07-30T12:27:34.009Z,3.00
2017-07-30T12:30:02.252Z,6.67
2017-07-30T12:32:30.497Z,4.13
2017-07-30T12:34:59.315Z,3.47
2017-07-30T12:37:27.580Z,3.73
2017-07-30T12:39:55.848Z,3.33
2017-07-30T12:42:24.140Z,3.13
2017-07-30T12:44:53.561Z,3.63
2017-07-30T12:47:21.807Z,5.00
2017-07-30T12:49:50.308Z,3.40
2017-07-30T12:52:18.544Z,3.47
2017-07-30T12:54:47.199Z,4.33
2017-07-30T12:57:15.525Z,3.10
2017-07-30T12:59:43.762Z,3.17
2017-07-30T13:02:12.017Z,3.53
2017-07-30T13:04:40.275Z,8.60
2017-07-30T13:07:08.544Z,3.43
2017-07-30T13:09:37.488Z,4.57
2017-07-30T13:12:05.936Z,6.50
2017-07-30T13:14:34.177Z,3.07
2017-07-30T13:17:02.434Z,4.40
2017-07-30T13:19:30.773Z,4.00
2017-07-30T13:21:59.228Z,3.57
2017-07-30T13:24:27.470Z,4.07
2017-07-30T13:26:55.929Z,3.67
2017-07-30T13:29:24.203Z,3.30
2017-07-30T13:31:52.463Z,4.10
2017-07-30T13:34:20.712Z,3.40
2017-07-30T13:36:48.946Z,3.83
2017-07-30T13:39:17.881Z,3.57
2017-07-30T13:41:46.123Z,4.70
2017-07-30T13:44:14.612Z,4.93
2017-07-30T13:46:42.936Z,4.00
2017-07-30T13:49:11.201Z,4.57
2017-07-30T13:51:39.432Z,5.60
2017-07-30T13:54:07.709Z,3.93
2017-07-30T13:56:35.976Z,3.80
2017-07-30T13:59:04.606Z,4.20
2017-07-30T14:01:33.029Z,5.30
2017-07-30T14:04:01.661Z,6.07
2017-07-30T14:06:29.912Z,4.10
2017-07-30T14:08:58.461Z,6.33
2017-07-30T14:11:26.728Z,4.43
2017-07-30T14:13:54.980Z,4.30
2017-07-30T14:16:23.272Z,3.93
2017-07-30T14:18:51.508Z,4.00
2017-07-30T14:21:19.921Z,4.60
2017-07-30T14:23:48.223Z,5.83
2017-07-30T14:26:16.460Z,9.03
2017-07-30T14:28:44.731Z,4.10
2017-07-30T14:31:13.208Z,5.00
2017-07-30T14:33:41.507Z,4.73
2017-07-30T14:36:09.754Z,4.43
2017-07-30T14:38:37.997Z,4.00
2017-07-30T14:41:06.539Z,4.03
2017-07-30T14:43:34.774Z,4.63
2017-07-30T14:46:03.007Z,3.70
2017-07-30T14:48:31.285Z,3.83
2017-07-30T14:50:59.512Z,4.20
2017-07-30T14:53:27.758Z,3.77
2017-07-30T14:55:56.801Z,5.00
2017-07-30T14:58:25.021Z,5.70
2017-07-30T15:00:53.665Z,4.33
2017-07-30T15:03:22.242Z,3.53
2017-07-30T15:05:50.469Z,7.73
2017-07-30T15:08:19.120Z,2.90
2017-07-30T15:10:47.404Z,4.03
2017-07-30T15:13:15.648Z,3.63
2017-07-30T15:15:43.941Z,7.07
2017-07-30T15:18:12.355Z,6.87
2017-07-30T15:20:40.997Z,3.30
2017-07-30T15:23:09.599Z,3.40
2017-07-30T15:25:37.856Z,3.67
2017-07-30T15:28:06.360Z,9.77
2017-07-30T15:30:34.604Z,4.30
2017-07-30T15:33:02.874Z,6.53
2017-07-30T15:35:31.232Z,5.60
2017-07-30T15:37:59.492Z,4.10
2017-07-30T15:40:28.182Z,8.03
2017-07-30T15:42:56.440Z,4.87
2017-07-30T15:45:24.680Z,4.00
2017-07-30T15:47:53.251Z,4.30
2017-07-30T15:50:21.708Z,4.43
2017-07-30T15:52:49.951Z,4.50
2017-07-30T15:55:18.239Z,4.93
2017-07-30T15:57:46.473Z,3.80
2017-07-30T16:00:14.710Z,6.53
2017-07-30T16:02:42.955Z,5.10
2017-07-30T16:05:11.272Z,3.27
2017-07-30T16:07:39.746Z,7.20
2017-07-30T16:10:07.976Z,4.43
2017-07-30T16:12:36.298Z,3.93
2017-07-30T16:15:04.581Z,3.77
2017-07-30T16:17:32.833Z,5.00
2017-07-30T16:20:01.541Z,6.93
2017-07-30T16:22:29.777Z,5.87
2017-07-30T16:24:58.429Z,8.77
2017-07-30T16:27:26.725Z,5.63
2017-07-30T16:29:55.518Z,4.73
2017-07-30T16:32:23.786Z,5.37
2017-07-30T16:34:52.118Z,3.80
2017-07-30T16:37:20.344Z,4.60
2017-07-30T16:39:48.615Z,5.07
2017-07-30T16:42:16.860Z,4.73
2017-07-30T16:44:45.103Z,4.13
2017-07-30T16:47:13.738Z,7.00
2017-07-30T16:49:42.012Z,4.27
2017-07-30T16:52:10.479Z,4.93
2017-07-30T16:54:38.720Z,5.20
2017-07-30T16:57:07.153Z,5.43
2017-07-30T16:59:35.657Z,5.23
2017-07-30T17:02:03.895Z,4.33
2017-07-30T17:04:32.209Z,4.03
2017-07-30T17:07:00.703Z,5.63
2017-07-30T17:09:28.967Z,5.80
2017-07-30T17:11:57.231Z,4.50
2017-07-30T17:14:26.312Z,4.27
2017-07-30T17:16:54.590Z,4.37
2017-07-30T17:19:22.847Z,3.47
2017-07-30T17:21:51.107Z,5.83
2017-07-30T17:24:19.671Z,3.80
2017-07-30T17:26:47.916Z,4.27
2017-07-30T17:29:16.180Z,4.57
2017-07-30T17:31:44.868Z,3.40
2017-07-30T17:34:13.107Z,10.30
2017-07-30T17:36:41.350Z,9.30
2017-07-30T17:39:09.802Z,5.10
2017-07-30T17:41:38.048Z,5.03
2017-07-30T17:44:06.298Z,5.83
2017-07-30T17:46:34.608Z,3.93
2017-07-30T17:49:03.111Z,5.90
2017-07-30T17:51:31.732Z,6.07
2017-07-30T17:54:00.003Z,5.43
2017-07-30T17:56:28.633Z,7.30
2017-07-30T17:58:56.882Z,6.67
2017-07-30T18:01:25.134Z,7.43
2017-07-30T18:03:53.369Z,6.53
2017-07-30T18:06:21.666Z,8.30
2017-07-30T18:08:49.908Z,5.87
2017-07-30T18:11:18.159Z,4.77
2017-07-30T18:13:46.441Z,8.50
2017-07-30T18:16:14.701Z,5.73
2017-07-30T18:18:42.962Z,6.70
2017-07-30T18:21:11.324Z,9.47
2017-07-30T18:23:39.637Z,5.07
2017-07-30T18:26:07.878Z,5.97
2017-07-30T18:28:36.353Z,6.80
2017-07-30T18:31:04.597Z,4.00
2017-07-30T18:33:33.094Z,7.93
2017-07-30T18:36:01.385Z,5.20
2017-07-30T18:38:29.649Z,6.60
2017-07-30T18:40:57.904Z,6.27
2017-07-30T18:43:26.148Z,5.70
2017-07-30T18:45:54.399Z,5.40
2017-07-30T18:48:22.669Z,6.13
2017-07-30T18:50:51.321Z,5.57
2017-07-30T18:53:19.573Z,9.33
2017-07-30T18:55:47.841Z,7.43
2017-07-30T18:58:16.072Z,4.07
2017-07-30T19:00:44.332Z,4.23
2017-07-30T19:03:12.752Z,5.10
2017-07-30T19:05:41.392Z,15.00
2017-07-30T19:08:09.676Z,9.57
2017-07-30T19:10:38.152Z,6.93
2017-07-30T19:13:06.420Z,6.77
2017-07-30T19:15:34.681Z,5.53
2017-07-30T19:18:02.949Z,8.87
2017-07-30T19:20:31.180Z,6.40
2017-07-30T19:22:59.473Z,7.33
2017-07-30T19:25:27.741Z,6.33
2017-07-30T19:27:56.000Z,8.30
2017-07-30T19:30:24.297Z,6.73
2017-07-30T19:32:52.542Z,8.50
2017-07-30T19:35:20.782Z,4.50
2017-07-30T19:37:49.044Z,7.73
2017-07-30T19:40:17.294Z,8.50
2017-07-30T19:42:45.532Z,5.50
2017-07-30T19:45:13.832Z,6.30
2017-07-30T19:47:42.128Z,10.27
2017-07-30T19:50:10.384Z,5.80
2017-07-30T19:52:39.372Z,7.57
2017-07-30T19:55:07.610Z,6.63
2017-07-30T19:57:35.857Z,10.10
2017-07-30T20:00:04.542Z,6.70
2017-07-30T20:02:32.800Z,4.33
2017-07-30T20:05:01.433Z,8.03
2017-07-30T20:07:29.760Z,5.83
2017-07-30T20:09:58.022Z,6.80
2017-07-30T20:12:26.269Z,6.80
2017-07-30T20:14:55.124Z,5.73
2017-07-30T20:17:23.396Z,12.60
2017-07-30T20:19:51.653Z,4.27
2017-07-30T20:22:19.988Z,6.20
2017-07-30T20:24:48.253Z,6.17
2017-07-30T20:27:16.488Z,5.73
2017-07-30T20:29:44.829Z,4.43
2017-07-30T20:32:13.079Z,4.07
2017-07-30T20:34:41.315Z,3.47
2017-07-30T20:37:10.297Z,6.37
2017-07-30T20:39:38.540Z,8.13
2017-07-30T20:42:06.831Z,4.27
2017-07-30T20:44:35.108Z,3.57
2017-07-30T20:47:03.383Z,8.60
2017-07-30T20:49:31.645Z,7.13
2017-07-30T20:51:59.913Z,7.00
2017-07-30T20:54:28.145Z,7.20
2017-07-30T20:56:56.416Z,5.80
2017-07-30T20:59:25.282Z,6.63
2017-07-30T21:01:53.512Z,7.23
2017-07-30T21:04:21.788Z,5.40
2017-07-30T21:06:50.205Z,9.77
2017-07-30T21:09:18.449Z,4.97
2017-07-30T21:11:47.209Z,6.50
2017-07-30T21:14:15.492Z,6.17
2017-07-30T21:16:43.743Z,4.70
2017-07-30T21:19:12.201Z,4.73
2017-07-30T21:21:40.497Z,7.10
2017-07-30T21:24:08.760Z,6.90
2017-07-30T21:26:36.981Z,4.33
2017-07-30T21:29:05.364Z,8.07
2017-07-30T21:31:33.594Z,5.63
2017-07-30T21:34:01.972Z,6.07
2017-07-30T21:36:31.066Z,4.20
2017-07-30T21:38:59.703Z,12.43
2017-07-30T21:41:28.048Z,6.93
2017-07-30T21:43:57.021Z,7.37
2017-07-30T21:46:25.327Z,4.17
2017-07-30T21:48:53.644Z,11.43
2017-07-30T21:51:21.986Z,6.47
2017-07-30T21:53:50.228Z,4.97
2017-07-30T21:56:18.475Z,7.37
2017-07-30T21:58:46.764Z,4.60
2017-07-30T22:01:15.676Z,6.47
2017-07-30T22:03:44.240Z,4.53
2017-07-30T22:06:12.500Z,8.40
2017-07-30T22:08:40.727Z,5.50
2017-07-30T22:11:08.982Z,3.43
2017-07-30T22:13:37.310Z,11.70
2017-07-30T22:16:05.576Z,6.47
2017-07-30T22:18:33.813Z,5.67
2017-07-30T22:21:02.486Z,5.87
2017-07-30T22:23:30.716Z,6.63
2017-07-30T22:25:58.973Z,9.67
2017-07-30T22:28:27.212Z,6.80
2017-07-30T22:30:55.450Z,8.33
2017-07-30T22:33:23.699Z,11.70
2017-07-30T22:35:52.455Z,3.90
2017-07-30T22:38:20.690Z,5.97
2017-07-30T22:40:48.925Z,6.37
2017-07-30T22:43:17.581Z,4.47
2017-07-30T22:45:45.849Z,4.13
2017-07-30T22:48:14.076Z,10.07
2017-07-30T22:50:42.528Z,6.93
2017-07-30T22:53:10.776Z,10.70
2017-07-30T22:55:39.059Z,10.93
2017-07-30T22:58:07.368Z,6.43
2017-07-30T23:00:36.104Z,7.63
2017-07-30T23:03:04.362Z,5.50
2017-07-30T23:05:32.863Z,6.63
2017-07-30T23:08:01.104Z,5.43
2017-07-30T23:10:29.332Z,7.03
2017-07-30T23:12:57.799Z,7.70
2017-07-30T23:15:26.305Z,5.40
2017-07-30T23:17:54.546Z,3.90
2017-07-30T23:20:22.809Z,4.53
2017-07-30T23:22:51.058Z,5.83
2017-07-30T23:25:19.320Z,5.20
2017-07-30T23:27:47.763Z,4.97
2017-07-30T23:30:16.020Z,11.03
2017-07-30T23:32:44.277Z,5.60
2017-07-30T23:35:12.789Z,5.33
2017-07-30T23:37:41.040Z,4.23
2017-07-30T23:40:09.279Z,4.47
2017-07-30T23:42:38.343Z,7.70
2017-07-30T23:45:06.572Z,8.87
2017-07-30T23:47:34.842Z,7.63
2017-07-30T23:50:03.496Z,6.47
2017-07-30T23:52:31.738Z,6.40
2017-07-30T23:55:00.016Z,7.43
2017-07-30T23:57:28.568Z,6.77
2017-07-30T23:59:56.808Z,5.70
